createdAt,value
2022-10-15T00:01:49.358Z,14.40
2022-10-15T00:04:15.463Z,14.60
2022-10-15T00:06:41.556Z,13.10
2022-10-15T00:09:07.613Z,14.10
2022-10-15T00:11:33.825Z,13.63
2022-10-15T00:14:00.119Z,18.73
2022-10-15T00:16:27.884Z,13.20
2022-10-15T00:18:58.492Z,12.80
2022-10-15T00:21:25.055Z,12.70
2022-10-15T00:23:51.333Z,12.20
2022-10-15T00:26:23.524Z,15.93
2022-10-15T00:28:51.625Z,11.20
2022-10-15T00:31:20.197Z,13.33
2022-10-15T00:33:48.350Z,11.27
2022-10-15T00:36:16.971Z,11.20
2022-10-15T00:38:43.113Z,11.77
2022-10-15T00:41:15.732Z,11.00
2022-10-15T00:43:55.695Z,11.50
2022-10-15T00:46:42.203Z,10.33
2022-10-15T00:49:20.101Z,11.30
2022-10-15T00:51:49.211Z,9.97
2022-10-15T00:54:15.535Z,11.17
2022-10-15T00:56:43.283Z,10.20
2022-10-15T00:59:10.869Z,10.87
2022-10-15T01:01:37.006Z,10.20
2022-10-15T01:04:04.005Z,9.20
2022-10-15T01:06:30.012Z,10.20
2022-10-15T01:08:56.348Z,10.50
2022-10-15T01:11:48.221Z,9.87
2022-10-15T01:14:32.951Z,10.13
2022-10-15T01:17:04.608Z,10.80
2022-10-15T01:20:08.027Z,10.63
2022-10-15T01:22:43.182Z,11.07
2022-10-15T01:25:21.439Z,10.40
2022-10-15T01:27:54.043Z,9.27
2022-10-15T01:30:25.975Z,10.20
2022-10-15T01:33:33.607Z,10.30
2022-10-15T01:36:08.431Z,9.90
2022-10-15T01:38:43.447Z,10.17
2022-10-15T01:41:15.336Z,9.40
2022-10-15T01:43:48.113Z,9.20
2022-10-15T01:46:18.793Z,9.80
2022-10-15T01:48:45.027Z,8.10
2022-10-15T01:51:12.413Z,9.10
2022-10-15T01:53:39.378Z,9.17
2022-10-15T01:56:17.881Z,7.83
2022-10-15T01:58:44.482Z,8.03
2022-10-15T02:01:10.742Z,7.77
2022-10-15T02:03:55.801Z,8.07
2022-10-15T02:06:29.399Z,8.10
2022-10-15T02:09:01.505Z,7.40
2022-10-15T02:11:29.088Z,7.60
2022-10-15T02:13:58.129Z,7.20
2022-10-15T02:16:30.067Z,8.07
2022-10-15T02:19:06.316Z,8.00
2022-10-15T02:21:38.807Z,7.17
2022-10-15T02:24:13.192Z,7.40
2022-10-15T02:26:39.661Z,8.00
2022-10-15T02:29:09.609Z,7.03
2022-10-15T02:31:36.079Z,5.97
2022-10-15T02:34:05.515Z,6.80
2022-10-15T02:36:32.005Z,6.80
2022-10-15T02:38:59.385Z,6.10
2022-10-15T02:41:27.899Z,6.97
2022-10-15T02:43:54.190Z,6.33
2022-10-15T02:46:20.560Z,6.43
2022-10-15T02:48:46.759Z,6.97
2022-10-15T02:51:12.759Z,7.80
2022-10-15T02:53:38.823Z,7.30
2022-10-15T02:56:04.989Z,7.77
2022-10-15T02:58:31.005Z,6.13
2022-10-15T03:00:57.099Z,6.50
2022-10-15T03:03:23.145Z,6.73
2022-10-15T03:05:49.289Z,7.00
2022-10-15T03:08:15.320Z,7.40
2022-10-15T03:10:41.354Z,7.30
2022-10-15T03:13:07.492Z,8.30
2022-10-15T03:15:33.796Z,7.77
2022-10-15T03:17:59.805Z,6.40
2022-10-15T03:20:26.097Z,8.00
2022-10-15T03:22:52.115Z,9.73
2022-10-15T03:25:18.172Z,8.53
2022-10-15T03:27:44.222Z,9.23
2022-10-15T03:30:10.537Z,11.23
2022-10-15T03:32:36.602Z,8.60
2022-10-15T03:35:02.964Z,7.30
2022-10-15T03:37:29.025Z,8.07
2022-10-15T03:39:55.112Z,8.07
2022-10-15T03:42:21.678Z,8.20
2022-10-15T03:44:47.928Z,8.67
2022-10-15T03:47:14.011Z,7.90
2022-10-15T03:49:40.009Z,8.20
2022-10-15T03:52:06.019Z,9.00
2022-10-15T03:54:32.045Z,9.23
2022-10-15T03:56:58.063Z,9.07
2022-10-15T03:59:24.057Z,8.73
2022-10-15T04:01:50.078Z,9.40
2022-10-15T04:04:16.138Z,9.50
2022-10-15T04:06:42.249Z,9.10
2022-10-15T04:09:10.483Z,9.03
2022-10-15T04:11:36.503Z,8.97
2022-10-15T04:14:02.569Z,8.07
2022-10-15T04:16:28.573Z,8.50
2022-10-15T04:18:54.660Z,9.83
2022-10-15T04:21:20.874Z,10.40
2022-10-15T04:23:46.975Z,9.30
2022-10-15T04:26:13.019Z,10.47
2022-10-15T04:28:39.111Z,9.30
2022-10-15T04:31:05.225Z,9.23
2022-10-15T04:33:31.281Z,9.43
2022-10-15T04:35:59.643Z,10.70
2022-10-15T04:38:26.043Z,11.07
2022-10-15T04:41:00.102Z,9.23
2022-10-15T04:43:26.596Z,12.93
2022-10-15T04:45:55.859Z,11.03
2022-10-15T04:48:21.931Z,11.03
2022-10-15T04:50:47.935Z,10.30
2022-10-15T04:53:13.952Z,10.80
2022-10-15T04:55:40.013Z,10.33
2022-10-15T04:58:06.028Z,10.00
2022-10-15T05:00:32.046Z,9.43
2022-10-15T05:02:58.058Z,10.23
2022-10-15T05:05:24.118Z,11.27
2022-10-15T05:07:50.104Z,9.93
2022-10-15T05:10:16.292Z,10.00
2022-10-15T05:15:13.339Z,10.70
2022-10-15T05:17:39.365Z,11.67
2022-10-15T05:20:05.827Z,12.47
2022-10-15T05:22:31.822Z,11.33
2022-10-15T05:24:57.879Z,12.17
2022-10-15T05:27:23.863Z,11.00
2022-10-15T05:29:49.861Z,10.87
2022-10-15T05:32:16.034Z,11.80
2022-10-15T05:34:42.166Z,12.50
2022-10-15T05:37:08.175Z,12.00
2022-10-15T05:39:34.194Z,11.63
2022-10-15T05:42:00.229Z,12.57
2022-10-15T05:44:26.203Z,10.73
2022-10-15T05:46:52.195Z,11.43
2022-10-15T05:49:18.529Z,11.20
2022-10-15T05:51:44.621Z,10.97
2022-10-15T05:54:10.657Z,10.33
2022-10-15T05:56:36.684Z,10.38
2022-10-15T05:59:03.993Z,11.53
2022-10-15T06:01:30.097Z,11.17
2022-10-15T06:03:56.088Z,12.23
2022-10-15T06:06:24.421Z,11.33
2022-10-15T06:08:51.018Z,12.20
2022-10-15T06:11:18.106Z,11.60
2022-10-15T06:13:44.723Z,11.47
2022-10-15T06:16:12.032Z,13.60
2022-10-15T06:18:38.827Z,11.57
2022-10-15T06:21:06.085Z,11.10
2022-10-15T06:23:32.322Z,11.80
2022-10-15T06:26:02.818Z,12.50
2022-10-15T06:28:28.948Z,10.10
2022-10-15T06:30:58.579Z,11.23
2022-10-15T06:33:24.868Z,11.17
2022-10-15T06:35:50.913Z,10.67
2022-10-15T06:38:16.966Z,12.03
2022-10-15T06:40:42.981Z,11.77
2022-10-15T06:43:10.222Z,13.07
2022-10-15T06:45:37.887Z,11.47
2022-10-15T06:48:05.155Z,11.60
2022-10-15T06:50:32.509Z,10.70
2022-10-15T06:55:28.270Z,13.30
2022-10-15T06:57:55.603Z,13.20
2022-10-15T07:00:22.893Z,13.53
2022-10-15T07:02:49.547Z,16.20
2022-10-15T07:05:15.895Z,13.10
2022-10-15T07:07:42.119Z,13.90
2022-10-15T07:10:08.474Z,14.70
2022-10-15T07:12:34.662Z,14.60
2022-10-15T07:15:00.670Z,14.70
2022-10-15T07:17:27.891Z,14.17
2022-10-15T07:19:53.900Z,13.43
2022-10-15T07:22:19.910Z,17.20
2022-10-15T07:24:45.927Z,13.57
2022-10-15T07:27:19.637Z,14.60
2022-10-15T07:29:45.895Z,14.40
2022-10-15T07:32:11.901Z,13.80
2022-10-15T07:34:37.886Z,17.40
2022-10-15T07:37:03.915Z,16.33
2022-10-15T07:39:30.363Z,16.93
2022-10-15T07:41:56.367Z,9.73
2022-10-15T07:44:22.434Z,10.90
2022-10-15T07:46:48.436Z,12.50
2022-10-15T07:49:15.641Z,9.70
2022-10-15T07:51:42.195Z,11.03
2022-10-15T07:54:08.187Z,13.40
2022-10-15T07:56:34.182Z,10.60
2022-10-15T07:59:00.214Z,9.90
2022-10-15T08:01:26.275Z,7.53
2022-10-15T08:03:52.390Z,7.53
2022-10-15T08:06:18.574Z,7.20
2022-10-15T08:08:44.621Z,5.40
2022-10-15T08:11:12.831Z,5.33
2022-10-15T08:13:41.415Z,5.10
2022-10-15T08:16:12.090Z,4.87
2022-10-15T08:18:38.609Z,4.80
2022-10-15T08:21:06.015Z,5.20
2022-10-15T08:23:32.431Z,4.70
2022-10-15T08:25:59.897Z,4.27
2022-10-15T08:28:30.060Z,4.13
2022-10-15T08:31:04.219Z,3.77
2022-10-15T08:33:32.806Z,3.70
2022-10-15T08:35:58.899Z,3.43
2022-10-15T08:38:24.981Z,3.50
2022-10-15T08:40:55.738Z,3.80
2022-10-15T08:43:25.822Z,3.60
2022-10-15T08:45:56.045Z,4.47
2022-10-15T08:48:31.874Z,4.50
2022-10-15T08:51:04.469Z,3.07
2022-10-15T08:53:36.150Z,3.67
2022-10-15T08:56:03.943Z,3.57
2022-10-15T08:58:51.163Z,3.70
2022-10-15T09:01:26.168Z,3.60
2022-10-15T09:04:16.681Z,3.27
2022-10-15T09:06:42.950Z,2.70
2022-10-15T09:09:30.722Z,3.00
2022-10-15T09:12:34.469Z,4.13
2022-10-15T09:15:00.781Z,3.00
2022-10-15T09:17:29.356Z,2.50
2022-10-15T09:19:56.890Z,2.77
2022-10-15T09:22:25.703Z,3.10
2022-10-15T09:24:52.593Z,6.73
2022-10-15T09:27:29.361Z,3.13
2022-10-15T09:30:16.759Z,3.03
2022-10-15T09:33:24.507Z,3.20
2022-10-15T09:36:06.458Z,3.00
2022-10-15T09:38:55.642Z,2.80
2022-10-15T09:41:44.885Z,2.93
2022-10-15T09:44:13.622Z,2.80
2022-10-15T09:46:44.515Z,2.50
2022-10-15T09:49:36.980Z,2.27
2022-10-15T09:52:25.500Z,2.10
2022-10-15T09:55:06.862Z,2.00
2022-10-15T09:57:34.685Z,1.80
2022-10-15T10:00:04.177Z,1.97
2022-10-15T10:02:30.515Z,2.30
2022-10-15T10:04:56.959Z,2.07
2022-10-15T10:07:30.290Z,3.83
2022-10-15T10:09:57.990Z,14.83
2022-10-15T10:12:30.449Z,1.40
2022-10-15T10:15:03.505Z,2.27
2022-10-15T10:17:30.091Z,1.10
2022-10-15T10:20:08.587Z,1.00
2022-10-15T10:22:51.399Z,1.03
2022-10-15T10:25:38.641Z,1.03
2022-10-15T10:28:14.960Z,1.20
2022-10-15T10:30:52.525Z,1.70
2022-10-15T10:33:51.647Z,1.00
2022-10-15T10:36:23.710Z,1.13
2022-10-15T10:39:24.422Z,1.10
2022-10-15T10:41:57.932Z,5.63
2022-10-15T10:44:31.377Z,1.00
2022-10-15T10:47:10.770Z,1.20
2022-10-15T10:49:41.931Z,1.10
2022-10-15T10:52:21.386Z,2.07
2022-10-15T10:54:52.673Z,1.00
2022-10-15T10:57:21.040Z,1.60
2022-10-15T10:59:51.815Z,1.13
2022-10-15T11:02:17.856Z,1.20
2022-10-15T11:04:43.884Z,1.10
2022-10-15T11:07:27.204Z,1.30
2022-10-15T11:09:58.479Z,1.20
2022-10-15T11:12:42.444Z,1.10
2022-10-15T11:15:29.727Z,1.20
2022-10-15T11:18:29.142Z,3.33
2022-10-15T11:21:28.136Z,1.13
2022-10-15T11:24:24.770Z,2.20
2022-10-15T11:27:11.969Z,1.40
2022-10-15T11:29:50.206Z,1.17
2022-10-15T11:32:21.143Z,1.10
2022-10-15T11:35:24.071Z,1.13
2022-10-15T11:38:12.697Z,2.50
2022-10-15T11:41:02.343Z,1.40
2022-10-15T11:43:37.564Z,2.70
2022-10-15T11:46:12.655Z,1.93
2022-10-15T11:48:57.785Z,1.20
2022-10-15T11:51:51.630Z,1.70
2022-10-15T11:54:26.689Z,2.07
2022-10-15T11:56:53.511Z,2.17
2022-10-15T11:59:39.491Z,3.77
2022-10-15T12:02:10.827Z,1.20
2022-10-15T12:04:42.919Z,1.10
2022-10-15T12:07:17.885Z,2.50
2022-10-15T12:09:47.972Z,1.00
2022-10-15T12:12:21.308Z,2.00
2022-10-15T12:14:47.553Z,2.47
2022-10-15T12:17:23.413Z,1.00
2022-10-15T12:20:16.220Z,1.00
2022-10-15T12:22:59.456Z,1.00
2022-10-15T12:25:34.953Z,1.40
2022-10-15T12:28:11.804Z,3.63
2022-10-15T12:30:38.540Z,2.10
2022-10-15T12:33:22.735Z,1.40
2022-10-15T12:35:57.129Z,1.50
2022-10-15T12:38:27.393Z,1.20
2022-10-15T12:41:03.210Z,2.23
2022-10-15T12:43:30.954Z,2.03
2022-10-15T12:45:59.738Z,1.10
2022-10-15T12:48:35.350Z,5.00
2022-10-15T12:51:22.478Z,1.00
2022-10-15T12:53:50.238Z,2.40
2022-10-15T12:56:16.207Z,1.00
2022-10-15T12:58:46.221Z,1.00
2022-10-15T13:01:12.281Z,1.00
2022-10-15T13:03:50.693Z,3.47
2022-10-15T13:06:19.667Z,1.10
2022-10-15T13:08:51.701Z,3.83
2022-10-15T13:11:30.084Z,1.77
2022-10-15T13:13:59.813Z,1.97
2022-10-15T13:16:25.944Z,1.10
2022-10-15T13:18:54.992Z,1.10
2022-10-15T13:21:21.866Z,1.33
2022-10-15T13:23:50.347Z,0.90
2022-10-15T13:26:21.938Z,0.93
2022-10-15T13:28:49.430Z,1.00
2022-10-15T13:31:27.422Z,1.00
2022-10-15T13:34:06.471Z,1.67
2022-10-15T13:36:33.948Z,2.03
2022-10-15T13:39:04.306Z,1.57
2022-10-15T13:41:38.811Z,1.00
2022-10-15T13:44:04.858Z,3.53
2022-10-15T13:46:33.268Z,1.00
2022-10-15T13:49:08.724Z,1.00
2022-10-15T13:51:39.345Z,4.90
2022-10-15T13:54:18.670Z,0.90
2022-10-15T13:56:57.139Z,2.70
2022-10-15T13:59:23.829Z,1.87
2022-10-15T14:02:01.405Z,1.00
2022-10-15T14:04:28.864Z,1.10
2022-10-15T14:09:34.504Z,1.00
2022-10-15T14:12:03.192Z,1.83
2022-10-15T14:14:35.173Z,1.10
2022-10-15T14:17:06.209Z,2.30
2022-10-15T14:19:33.931Z,2.27
2022-10-15T14:22:00.956Z,1.70
2022-10-15T14:24:38.368Z,3.57
2022-10-15T14:27:14.170Z,5.27
2022-10-15T14:29:47.635Z,1.50
2022-10-15T14:32:48.036Z,4.80
2022-10-15T14:35:32.323Z,2.53
2022-10-15T14:38:04.608Z,1.90
2022-10-15T14:40:30.970Z,2.00
2022-10-15T14:43:04.458Z,1.90
2022-10-15T14:45:41.229Z,1.47
2022-10-15T14:48:10.761Z,1.70
2022-10-15T14:50:41.661Z,3.07
2022-10-15T14:53:10.247Z,1.90
2022-10-15T14:55:39.922Z,2.60
2022-10-15T14:58:13.713Z,6.50
2022-10-15T15:00:45.341Z,1.60
2022-10-15T15:03:16.844Z,1.40
2022-10-15T15:05:52.088Z,1.87
2022-10-15T15:08:18.118Z,1.70
2022-10-15T15:10:44.961Z,1.73
2022-10-15T15:13:19.621Z,2.97
2022-10-15T15:15:45.782Z,1.83
2022-10-15T15:18:12.278Z,3.10
2022-10-15T15:20:39.825Z,2.43
2022-10-15T15:23:05.946Z,1.70
2022-10-15T15:25:34.725Z,2.70
2022-10-15T15:28:01.236Z,2.50
2022-10-15T15:30:29.673Z,1.90
2022-10-15T15:32:55.801Z,1.93
2022-10-15T15:35:26.165Z,2.13
2022-10-15T15:37:52.840Z,3.03
2022-10-15T15:40:19.285Z,2.07
2022-10-15T15:42:46.014Z,1.93
2022-10-15T15:45:23.358Z,1.70
2022-10-15T15:47:49.818Z,3.33
2022-10-15T15:50:16.809Z,1.87
2022-10-15T15:52:43.672Z,1.80
2022-10-15T15:55:10.272Z,1.87
2022-10-15T15:57:36.590Z,2.00
2022-10-15T16:00:04.698Z,2.30
2022-10-15T16:02:30.809Z,2.47
2022-10-15T16:04:56.932Z,2.07
2022-10-15T16:07:27.422Z,4.83
2022-10-15T16:09:54.348Z,2.03
2022-10-15T16:12:20.453Z,1.40
2022-10-15T16:14:46.652Z,1.77
2022-10-15T16:17:12.705Z,3.53
2022-10-15T16:19:38.838Z,1.70
2022-10-15T16:22:04.888Z,4.47
2022-10-15T16:24:30.985Z,1.57
2022-10-15T16:26:57.129Z,1.47
2022-10-15T16:29:23.244Z,1.67
2022-10-15T16:31:49.237Z,1.90
2022-10-15T16:34:15.281Z,1.87
2022-10-15T16:36:41.445Z,1.63
2022-10-15T16:39:07.543Z,1.70
2022-10-15T16:41:33.641Z,1.60
2022-10-15T16:43:59.683Z,1.40
2022-10-15T16:46:25.837Z,3.07
2022-10-15T16:48:53.956Z,1.33
2022-10-15T16:51:21.654Z,1.63
2022-10-15T16:53:48.493Z,2.00
2022-10-15T16:56:26.230Z,1.67
2022-10-15T16:58:52.767Z,1.60
2022-10-15T17:01:40.977Z,1.70
2022-10-15T17:04:07.108Z,1.50
2022-10-15T17:06:33.309Z,1.70
2022-10-15T17:09:00.422Z,4.53
2022-10-15T17:11:32.615Z,1.70
2022-10-15T17:14:00.949Z,1.83
2022-10-15T17:16:31.336Z,1.47
2022-10-15T17:18:57.525Z,1.60
2022-10-15T17:21:25.772Z,1.53
2022-10-15T17:23:54.196Z,1.67
2022-10-15T17:26:23.073Z,1.80
2022-10-15T17:28:49.739Z,2.23
2022-10-15T17:31:19.022Z,2.13
2022-10-15T17:33:46.022Z,1.70
2022-10-15T17:36:15.677Z,4.83
2022-10-15T17:38:41.863Z,2.50
2022-10-15T17:41:10.758Z,4.53
2022-10-15T17:43:39.945Z,1.97
2022-10-15T17:46:17.628Z,1.50
2022-10-15T17:48:43.998Z,2.20
2022-10-15T17:51:13.459Z,1.10
2022-10-15T17:53:40.060Z,1.23
2022-10-15T17:56:14.734Z,2.20
2022-10-15T17:58:41.255Z,3.10
2022-10-15T18:01:23.476Z,1.73
2022-10-15T18:03:58.993Z,4.07
2022-10-15T18:06:26.051Z,2.60
2022-10-15T18:08:52.618Z,1.20
2022-10-15T18:11:21.278Z,1.30
2022-10-15T18:13:48.324Z,6.57
2022-10-15T18:16:14.402Z,5.77
2022-10-15T18:18:40.481Z,1.20
2022-10-15T18:21:11.550Z,1.30
2022-10-15T18:23:38.381Z,1.03
2022-10-15T18:26:05.417Z,2.07
2022-10-15T18:28:31.733Z,3.00
2022-10-15T18:31:01.347Z,1.23
2022-10-15T18:33:27.360Z,1.03
2022-10-15T18:35:53.521Z,1.37
2022-10-15T18:38:19.938Z,3.23
2022-10-15T18:40:46.398Z,2.03
2022-10-15T18:43:14.071Z,3.20
2022-10-15T18:45:44.024Z,2.50
2022-10-15T18:48:10.494Z,1.20
2022-10-15T18:50:40.278Z,2.33
2022-10-15T18:53:06.873Z,1.10
2022-10-15T18:55:33.151Z,1.20
2022-10-15T18:58:01.136Z,1.20
2022-10-15T19:00:28.290Z,0.90
2022-10-15T19:02:56.039Z,1.60
2022-10-15T19:05:22.842Z,2.50
2022-10-15T19:07:54.137Z,2.33
2022-10-15T19:10:22.312Z,1.10
2022-10-15T19:12:49.462Z,4.30
2022-10-15T19:15:15.667Z,1.27
2022-10-15T19:17:41.717Z,2.13
2022-10-15T19:20:08.183Z,1.20
2022-10-15T19:22:34.175Z,2.40
2022-10-15T19:25:00.235Z,4.67
2022-10-15T19:27:26.795Z,3.73
2022-10-15T19:29:53.372Z,1.90
2022-10-15T19:32:19.431Z,1.60
2022-10-15T19:34:45.460Z,1.17
2022-10-15T19:37:11.561Z,1.30
2022-10-15T19:39:38.895Z,1.77
2022-10-15T19:42:04.911Z,2.63
2022-10-15T19:44:31.032Z,1.10
2022-10-15T19:46:57.250Z,5.50
2022-10-15T19:49:24.214Z,1.60
2022-10-15T19:51:50.541Z,1.90
2022-10-15T19:54:17.118Z,2.10
2022-10-15T19:56:44.314Z,2.13
2022-10-15T19:59:10.512Z,1.57
2022-10-15T20:01:36.881Z,2.17
2022-10-15T20:04:06.594Z,2.37
2022-10-15T20:06:34.956Z,1.80
2022-10-15T20:09:01.397Z,1.73
2022-10-15T20:11:27.393Z,2.70
2022-10-15T20:13:53.455Z,1.70
2022-10-15T20:16:22.299Z,2.50
2022-10-15T20:18:49.418Z,4.03
2022-10-15T20:21:16.271Z,2.33
2022-10-15T20:23:43.573Z,3.57
2022-10-15T20:26:11.708Z,3.53
2022-10-15T20:28:39.350Z,1.63
2022-10-15T20:31:12.137Z,1.97
2022-10-15T20:33:39.833Z,4.53
2022-10-15T20:36:09.379Z,3.20
2022-10-15T20:38:37.062Z,3.07
2022-10-15T20:41:11.329Z,3.27
2022-10-15T20:43:37.639Z,1.90
2022-10-15T20:46:07.003Z,1.73
2022-10-15T20:48:33.159Z,1.90
2022-10-15T20:50:59.414Z,1.97
2022-10-15T20:53:26.096Z,2.03
2022-10-15T20:55:52.265Z,1.57
2022-10-15T20:58:18.305Z,1.97
2022-10-15T21:00:44.359Z,2.67
2022-10-15T21:03:10.401Z,2.17
2022-10-15T21:05:36.478Z,5.60
2022-10-15T21:08:02.619Z,3.10
2022-10-15T21:10:28.645Z,5.20
2022-10-15T21:12:54.707Z,3.57
2022-10-15T21:15:21.047Z,2.00
2022-10-15T21:17:47.122Z,1.80
2022-10-15T21:20:13.211Z,1.97
2022-10-15T21:22:39.210Z,1.73
2022-10-15T21:25:05.703Z,1.90
2022-10-15T21:27:31.700Z,3.20
2022-10-15T21:29:57.691Z,1.60
2022-10-15T21:32:23.780Z,1.43
2022-10-15T21:34:49.771Z,4.90
2022-10-15T21:37:15.848Z,2.17
2022-10-15T21:39:41.858Z,2.63
2022-10-15T21:42:07.869Z,2.20
2022-10-15T21:44:33.907Z,3.33
2022-10-15T21:47:00.086Z,2.57
2022-10-15T21:49:26.131Z,2.23
2022-10-15T21:51:52.130Z,2.40
2022-10-15T21:54:18.167Z,6.40
2022-10-15T21:56:44.214Z,3.13
2022-10-15T21:59:10.234Z,2.30
2022-10-15T22:01:37.240Z,6.63
2022-10-15T22:04:08.556Z,4.50
2022-10-15T22:06:35.203Z,2.07
2022-10-15T22:09:02.906Z,2.60
2022-10-15T22:11:31.123Z,3.37
2022-10-15T22:13:59.239Z,2.70
2022-10-15T22:16:26.347Z,2.53
2022-10-15T22:18:52.639Z,5.10
2022-10-15T22:21:21.575Z,2.40
2022-10-15T22:23:50.228Z,2.20
2022-10-15T22:26:17.567Z,3.13
2022-10-15T22:28:44.260Z,2.20
2022-10-15T22:31:12.692Z,2.30
2022-10-15T22:33:40.160Z,3.20
2022-10-15T22:36:12.565Z,2.53
2022-10-15T22:38:43.178Z,2.03
2022-10-15T22:41:09.553Z,7.50
2022-10-15T22:43:35.994Z,2.10
2022-10-15T22:46:02.476Z,1.90
2022-10-15T22:48:28.459Z,2.20
2022-10-15T22:50:58.505Z,6.17
2022-10-15T22:53:25.180Z,2.03
2022-10-15T22:56:02.781Z,1.90
2022-10-15T22:58:30.895Z,2.47
2022-10-15T23:01:09.495Z,2.60
2022-10-15T23:03:35.867Z,4.90
2022-10-15T23:06:02.275Z,7.60
2022-10-15T23:08:28.365Z,2.70
2022-10-15T23:10:54.378Z,3.50
2022-10-15T23:13:20.376Z,2.50
2022-10-15T23:15:46.436Z,2.90
2022-10-15T23:18:12.430Z,2.40
2022-10-15T23:20:38.446Z,3.93
2022-10-15T23:23:05.333Z,4.43
2022-10-15T23:25:37.875Z,3.20
2022-10-15T23:28:04.254Z,3.87
2022-10-15T23:30:30.267Z,2.90
2022-10-15T23:32:56.289Z,2.23
2022-10-15T23:35:22.279Z,1.90
2022-10-15T23:37:48.287Z,2.20
2022-10-15T23:40:14.318Z,1.93
2022-10-15T23:42:40.325Z,2.70
2022-10-15T23:45:06.622Z,3.73
2022-10-15T23:47:32.677Z,2.07
2022-10-15T23:49:58.715Z,2.10
2022-10-15T23:52:25.148Z,2.40
2022-10-15T23:54:51.148Z,2.10
2022-10-15T23:57:17.136Z,2.70
2022-10-15T23:59:43.179Z,2.37
